Skip Navigation Links Skip Navigation Links

Current Weather

Bournemouth, United Kingdom

For information only: do not use for flight planning or navigation.
Latest weather
Observation time Friday, December 3, 2021 9:20 AM GMT
Local time Friday, December 3, 2021 9:56 AM GMT
Flight conditions Visual Meteorological Conditions
Winds
Wind direction West-Northwest (300°)
Wind speed 9 mph
Visibility 6.2 mi.
Sky condition
Ceiling unlimited
Cloud layer few clouds 600 ft.
Cloud layer scattered clouds 700 ft.
Temperature 50°F
Dewpoint 48°F
Altimeter 29.68 in.Hg
Derived measurements
Relative humidity 94%
Wind chill 46°F
Density altitude -154 ft.
METAR EGHH 030920Z 30008KT 9999 FEW006 SCT007 10/09 Q1005

Settings

Location code

InnerDrive.Weather 4.0.6770.0 Release CLR 4.0.30319.42000
Copyright ©2018 Inner Drive Technology. All rights reserved. Portions Copyright ©1986-2018 David Braverman.

Find weather

Site navigation


Skip Navigation Links

Place info

Page info

PayPal - The safer, easier way to pay online!

Return home.

Copyright ©2021 Inner Drive Technology. Purveyors of fine, hand-crafted computer software. Page printed 2021-12-03T09:56:26 UTC.